createdAt,value
2022-10-01T00:01:19.698Z,2.90
2022-10-01T00:03:47.756Z,2.73
2022-10-01T00:06:20.302Z,3.00
2022-10-01T00:08:49.532Z,2.10
2022-10-01T00:11:26.529Z,2.60
2022-10-01T00:13:54.392Z,2.50
2022-10-01T00:16:24.097Z,2.27
2022-10-01T00:18:53.579Z,2.30
2022-10-01T00:21:25.674Z,2.60
2022-10-01T00:23:58.930Z,2.50
2022-10-01T00:26:29.407Z,2.50
2022-10-01T00:28:59.293Z,2.27
2022-10-01T00:31:26.731Z,2.80
2022-10-01T00:34:00.987Z,2.80
2022-10-01T00:36:27.577Z,2.33
2022-10-01T00:39:00.784Z,2.47
2022-10-01T00:41:34.343Z,2.60
2022-10-01T00:44:03.914Z,2.10
2022-10-01T00:46:43.186Z,2.73
2022-10-01T00:49:17.618Z,2.57
2022-10-01T00:51:51.813Z,2.43
2022-10-01T00:54:31.074Z,2.60
2022-10-01T00:56:59.356Z,2.63
2022-10-01T00:59:27.152Z,2.60
2022-10-01T01:01:54.129Z,2.60
2022-10-01T01:04:21.009Z,2.50
2022-10-01T01:06:57.571Z,2.33
2022-10-01T01:09:27.803Z,2.07
2022-10-01T01:12:24.798Z,2.27
2022-10-01T01:15:10.300Z,2.60
2022-10-01T01:17:46.189Z,2.13
2022-10-01T01:20:26.669Z,2.50
2022-10-01T01:23:16.949Z,2.50
2022-10-01T01:26:16.505Z,2.33
2022-10-01T01:28:50.412Z,2.60
2022-10-01T01:31:27.997Z,2.60
2022-10-01T01:33:57.625Z,2.67
2022-10-01T01:36:30.232Z,2.50
2022-10-01T01:39:06.345Z,2.73
2022-10-01T01:41:37.113Z,2.80
2022-10-01T01:44:08.596Z,2.80
2022-10-01T01:46:38.861Z,2.60
2022-10-01T01:49:06.282Z,2.80
2022-10-01T01:52:05.684Z,3.07
2022-10-01T01:54:35.635Z,2.77
2022-10-01T01:57:04.410Z,2.93
2022-10-01T01:59:34.462Z,2.63
2022-10-01T02:02:01.295Z,2.80
2022-10-01T02:04:36.052Z,3.00
2022-10-01T02:07:24.552Z,3.30
2022-10-01T02:09:54.117Z,3.60
2022-10-01T02:12:53.934Z,3.27
2022-10-01T02:16:04.081Z,3.00
2022-10-01T02:18:40.310Z,3.10
2022-10-01T02:21:23.986Z,3.27
2022-10-01T02:23:56.210Z,3.60
2022-10-01T02:26:24.396Z,3.67
2022-10-01T02:28:54.749Z,3.40
2022-10-01T02:31:23.119Z,3.97
2022-10-01T02:33:52.297Z,3.10
2022-10-01T02:36:21.324Z,3.60
2022-10-01T02:38:50.670Z,3.57
2022-10-01T02:41:23.196Z,3.70
2022-10-01T02:43:58.790Z,3.97
2022-10-01T02:46:58.232Z,4.20
2022-10-01T02:49:30.567Z,4.23
2022-10-01T02:52:26.093Z,3.57
2022-10-01T02:55:00.072Z,4.03
2022-10-01T02:57:27.571Z,3.90
2022-10-01T03:00:03.998Z,4.27
2022-10-01T03:02:31.539Z,3.97
2022-10-01T03:04:58.886Z,4.33
2022-10-01T03:07:27.814Z,3.80
2022-10-01T03:09:54.719Z,3.93
2022-10-01T03:12:22.406Z,4.53
2022-10-01T03:14:49.725Z,4.40
2022-10-01T03:17:16.856Z,4.40
2022-10-01T03:19:43.524Z,3.77
2022-10-01T03:22:13.097Z,4.47
2022-10-01T03:24:39.753Z,4.27
2022-10-01T03:27:06.574Z,4.20
2022-10-01T03:29:33.525Z,3.90
2022-10-01T03:32:00.196Z,4.27
2022-10-01T03:34:27.012Z,4.07
2022-10-01T03:36:53.637Z,4.20
2022-10-01T03:39:20.514Z,4.13
2022-10-01T03:41:47.206Z,4.80
2022-10-01T03:44:13.822Z,4.33
2022-10-01T03:46:40.380Z,5.03
2022-10-01T03:49:06.932Z,4.37
2022-10-01T03:51:33.783Z,4.50
2022-10-01T03:54:00.647Z,4.43
2022-10-01T03:56:27.332Z,4.70
2022-10-01T03:58:54.288Z,5.20
2022-10-01T04:01:21.137Z,4.47
2022-10-01T04:03:50.106Z,4.77
2022-10-01T04:06:16.749Z,4.93
2022-10-01T04:08:43.529Z,4.67
2022-10-01T04:11:10.575Z,4.70
2022-10-01T04:13:37.338Z,4.60
2022-10-01T04:16:05.621Z,4.53
2022-10-01T04:18:32.591Z,4.10
2022-10-01T04:20:59.390Z,4.37
2022-10-01T04:23:26.484Z,4.30
2022-10-01T04:25:53.706Z,4.00
2022-10-01T04:28:20.376Z,4.53
2022-10-01T04:30:47.033Z,4.07
2022-10-01T04:33:16.449Z,4.60
2022-10-01T04:35:43.645Z,3.83
2022-10-01T04:38:16.881Z,4.33
2022-10-01T04:40:43.850Z,3.90
2022-10-01T04:43:11.421Z,4.23
2022-10-01T04:45:38.376Z,4.10
2022-10-01T04:48:05.172Z,3.87
2022-10-01T04:50:32.194Z,4.27
2022-10-01T04:52:58.790Z,4.13
2022-10-01T04:55:25.359Z,4.20
2022-10-01T04:57:51.961Z,3.50
2022-10-01T05:00:21.860Z,4.10
2022-10-01T05:02:49.727Z,3.73
2022-10-01T05:05:18.888Z,3.70
2022-10-01T05:07:45.968Z,4.10
2022-10-01T05:10:15.676Z,4.00
2022-10-01T05:12:42.545Z,4.30
2022-10-01T05:15:09.770Z,3.93
2022-10-01T05:17:36.494Z,4.20
2022-10-01T05:20:05.676Z,4.73
2022-10-01T05:22:32.325Z,4.03
2022-10-01T05:25:00.167Z,3.83
2022-10-01T05:27:27.796Z,4.10
2022-10-01T05:29:54.345Z,4.07
2022-10-01T05:32:20.886Z,3.60
2022-10-01T05:34:52.617Z,3.90
2022-10-01T05:37:20.257Z,4.20
2022-10-01T05:39:46.981Z,3.90
2022-10-01T05:42:13.574Z,4.27
2022-10-01T05:44:45.849Z,4.07
2022-10-01T05:47:13.818Z,3.40
2022-10-01T05:49:42.791Z,3.67
2022-10-01T05:52:14.369Z,3.63
2022-10-01T05:54:41.225Z,3.47
2022-10-01T05:57:09.274Z,3.20
2022-10-01T05:59:36.008Z,3.40
2022-10-01T06:02:04.167Z,3.57
2022-10-01T06:04:31.218Z,3.33
2022-10-01T06:06:58.072Z,3.20
2022-10-01T06:09:24.897Z,3.10
2022-10-01T06:11:51.558Z,2.90
2022-10-01T06:14:18.833Z,3.47
2022-10-01T06:16:46.819Z,3.70
2022-10-01T06:19:13.552Z,3.23
2022-10-01T06:21:40.114Z,3.20
2022-10-01T06:24:06.981Z,3.63
2022-10-01T06:26:33.551Z,3.30
2022-10-01T06:29:00.102Z,3.13
2022-10-01T06:31:26.757Z,3.60
2022-10-01T06:33:53.350Z,3.40
2022-10-01T06:36:19.934Z,3.13
2022-10-01T06:38:49.744Z,3.40
2022-10-01T06:41:16.451Z,3.33
2022-10-01T06:43:43.020Z,3.20
2022-10-01T06:46:09.681Z,2.90
2022-10-01T06:48:36.842Z,3.10
2022-10-01T06:51:04.062Z,3.37
2022-10-01T06:53:31.701Z,3.30
2022-10-01T06:56:07.061Z,2.80
2022-10-01T06:58:34.493Z,3.40
2022-10-01T07:01:03.303Z,3.27
2022-10-01T07:03:30.989Z,3.73
2022-10-01T07:06:02.795Z,3.23
2022-10-01T07:08:30.009Z,3.63
2022-10-01T07:11:03.246Z,3.20
2022-10-01T07:13:29.861Z,4.13
2022-10-01T07:15:56.553Z,3.73
2022-10-01T07:18:23.915Z,3.70
2022-10-01T07:20:50.608Z,3.43
2022-10-01T07:23:17.470Z,4.10
2022-10-01T07:25:44.341Z,3.77
2022-10-01T07:28:20.694Z,3.83
2022-10-01T07:31:00.971Z,4.23
2022-10-01T07:33:28.108Z,4.20
2022-10-01T07:35:54.974Z,4.07
2022-10-01T07:38:21.861Z,4.17
2022-10-01T07:40:52.993Z,4.83
2022-10-01T07:43:19.593Z,4.67
2022-10-01T07:45:49.902Z,4.90
2022-10-01T07:48:16.766Z,4.57
2022-10-01T07:50:45.221Z,4.57
2022-10-01T07:53:12.600Z,4.87
2022-10-01T07:55:39.203Z,4.53
2022-10-01T07:58:06.262Z,4.63
2022-10-01T08:00:33.889Z,4.83
2022-10-01T08:03:00.905Z,5.30
2022-10-01T08:05:30.566Z,4.90
2022-10-01T08:08:02.453Z,4.67
2022-10-01T08:10:29.470Z,4.67
2022-10-01T08:13:01.248Z,4.67
2022-10-01T08:15:28.702Z,4.07
2022-10-01T08:17:55.240Z,4.73
2022-10-01T08:20:21.792Z,4.53
2022-10-01T08:22:48.332Z,4.97
2022-10-01T08:25:14.941Z,4.83
2022-10-01T08:27:41.526Z,5.27
2022-10-01T08:30:08.611Z,5.37
2022-10-01T08:32:35.217Z,4.77
2022-10-01T08:35:01.737Z,5.17
2022-10-01T08:37:29.504Z,5.73
2022-10-01T08:39:56.638Z,5.07
2022-10-01T08:42:42.985Z,4.80
2022-10-01T08:45:21.817Z,4.63
2022-10-01T08:48:25.898Z,4.50
2022-10-01T08:51:05.253Z,5.60
2022-10-01T08:53:49.629Z,5.43
2022-10-01T08:56:31.666Z,5.70
2022-10-01T08:59:04.570Z,4.90
2022-10-01T09:01:31.462Z,5.27
2022-10-01T09:03:59.516Z,4.97
2022-10-01T09:06:27.574Z,4.77
2022-10-01T09:09:37.541Z,3.93
2022-10-01T09:12:11.441Z,3.50
2022-10-01T09:15:03.029Z,3.93
2022-10-01T09:17:56.680Z,5.53
2022-10-01T09:20:41.035Z,8.17
2022-10-01T09:23:29.778Z,9.67
2022-10-01T09:25:59.820Z,3.63
2022-10-01T09:28:38.196Z,2.30
2022-10-01T09:31:24.545Z,1.80
2022-10-01T09:34:01.376Z,1.77
2022-10-01T09:36:38.944Z,2.00
2022-10-01T09:39:23.469Z,1.67
2022-10-01T09:41:50.056Z,2.00
2022-10-01T09:44:21.262Z,2.00
2022-10-01T09:46:47.915Z,2.10
2022-10-01T09:49:31.692Z,1.70
2022-10-01T09:52:06.124Z,1.37
2022-10-01T09:54:48.814Z,1.13
2022-10-01T09:57:28.392Z,1.10
2022-10-01T10:00:18.110Z,1.17
2022-10-01T10:02:49.181Z,0.83
2022-10-01T10:05:21.574Z,1.30
2022-10-01T10:08:15.747Z,1.23
2022-10-01T10:10:51.716Z,1.27
2022-10-01T10:13:34.752Z,1.30
2022-10-01T10:16:10.631Z,2.23
2022-10-01T10:18:39.408Z,1.60
2022-10-01T10:21:19.342Z,2.20
2022-10-01T10:23:51.024Z,1.27
2022-10-01T10:26:20.949Z,1.37
2022-10-01T10:28:47.952Z,1.47
2022-10-01T10:31:18.193Z,1.53
2022-10-01T10:33:47.616Z,1.10
2022-10-01T10:36:16.530Z,1.27
2022-10-01T10:38:50.223Z,1.03
2022-10-01T10:41:21.180Z,1.10
2022-10-01T10:43:49.168Z,1.13
2022-10-01T10:46:27.047Z,1.30
2022-10-01T10:49:18.366Z,1.37
2022-10-01T10:51:49.245Z,1.27
2022-10-01T10:54:23.055Z,1.00
2022-10-01T10:57:21.245Z,1.10
2022-10-01T11:00:17.127Z,1.33
2022-10-01T11:02:57.491Z,1.20
2022-10-01T11:05:29.909Z,1.10
2022-10-01T11:08:00.873Z,1.40
2022-10-01T11:10:51.554Z,1.03
2022-10-01T11:13:32.533Z,1.23
2022-10-01T11:16:26.505Z,1.00
2022-10-01T11:19:23.442Z,1.70
2022-10-01T11:22:02.441Z,1.40
2022-10-01T11:24:58.900Z,1.30
2022-10-01T11:27:36.404Z,1.07
2022-10-01T11:30:26.353Z,1.00
2022-10-01T11:33:26.809Z,0.87
2022-10-01T11:36:02.971Z,1.07
2022-10-01T11:38:43.128Z,1.20
2022-10-01T11:41:21.104Z,0.90
2022-10-01T11:43:57.671Z,1.00
2022-10-01T11:46:42.476Z,1.00
2022-10-01T11:49:29.377Z,1.00
2022-10-01T11:52:21.108Z,1.00
2022-10-01T11:55:21.210Z,0.73
2022-10-01T11:58:14.101Z,0.60
2022-10-01T12:00:43.978Z,0.50
2022-10-01T12:03:18.660Z,0.67
2022-10-01T12:05:45.991Z,0.50
2022-10-01T12:08:25.626Z,0.50
2022-10-01T12:11:16.135Z,0.57
2022-10-01T12:13:55.151Z,0.50
2022-10-01T12:16:37.932Z,0.43
2022-10-01T12:19:23.055Z,0.50
2022-10-01T12:21:59.449Z,0.40
2022-10-01T12:24:34.173Z,0.30
2022-10-01T12:27:33.291Z,0.50
2022-10-01T12:30:05.931Z,0.30
2022-10-01T12:32:58.284Z,0.47
2022-10-01T12:35:27.682Z,0.37
2022-10-01T12:38:12.002Z,0.30
2022-10-01T12:40:57.299Z,0.50
2022-10-01T12:43:47.225Z,0.50
2022-10-01T12:46:31.177Z,0.40
2022-10-01T12:49:03.870Z,0.43
2022-10-01T12:51:52.365Z,0.70
2022-10-01T12:54:46.749Z,0.50
2022-10-01T12:57:36.868Z,0.90
2022-10-01T13:00:20.661Z,1.00
2022-10-01T13:03:02.216Z,0.80
2022-10-01T13:05:43.056Z,0.70
2022-10-01T13:08:41.521Z,0.80
2022-10-01T13:11:38.299Z,0.70
2022-10-01T13:14:07.150Z,0.90
2022-10-01T13:16:44.480Z,0.77
2022-10-01T13:19:24.756Z,0.50
2022-10-01T13:22:07.641Z,0.83
2022-10-01T13:24:37.150Z,0.70
2022-10-01T13:27:13.608Z,0.73
2022-10-01T13:29:58.647Z,0.60
2022-10-01T13:32:50.714Z,0.50
2022-10-01T13:35:35.863Z,0.70
2022-10-01T13:38:29.118Z,0.60
2022-10-01T13:41:04.497Z,0.80
2022-10-01T13:43:33.325Z,0.63
2022-10-01T13:46:09.274Z,0.80
2022-10-01T13:48:44.250Z,0.60
2022-10-01T13:51:13.922Z,0.80
2022-10-01T13:53:43.273Z,1.00
2022-10-01T13:56:13.137Z,0.90
2022-10-01T13:58:41.824Z,0.53
2022-10-01T14:01:36.551Z,0.60
2022-10-01T14:04:38.227Z,0.80
2022-10-01T14:07:16.375Z,0.90
2022-10-01T14:09:50.129Z,0.83
2022-10-01T14:12:47.529Z,0.63
2022-10-01T14:15:57.504Z,0.60
2022-10-01T14:18:34.333Z,0.77
2022-10-01T14:21:25.686Z,0.73
2022-10-01T14:24:15.924Z,0.80
2022-10-01T14:27:02.137Z,0.90
2022-10-01T14:29:50.269Z,0.80
2022-10-01T14:33:01.037Z,0.63
2022-10-01T14:35:59.785Z,0.70
2022-10-01T14:38:26.553Z,0.47
2022-10-01T14:40:53.805Z,0.70
2022-10-01T14:43:22.298Z,0.90
2022-10-01T14:46:18.583Z,0.60
2022-10-01T14:48:57.944Z,0.60
2022-10-01T14:51:28.153Z,1.00
2022-10-01T14:53:57.849Z,1.13
2022-10-01T14:56:25.992Z,0.80
2022-10-01T14:58:57.308Z,0.80
2022-10-01T15:01:25.427Z,1.17
2022-10-01T15:03:53.647Z,1.20
2022-10-01T15:06:29.798Z,0.97
2022-10-01T15:09:07.801Z,0.83
2022-10-01T15:11:34.690Z,0.70
2022-10-01T15:14:12.773Z,1.27
2022-10-01T15:16:39.620Z,1.93
2022-10-01T15:19:09.789Z,1.07
2022-10-01T15:21:38.614Z,1.13
2022-10-01T15:24:11.769Z,0.93
2022-10-01T15:26:38.364Z,0.90
2022-10-01T15:29:11.411Z,1.27
2022-10-01T15:31:38.683Z,1.40
2022-10-01T15:34:07.028Z,0.90
2022-10-01T15:36:35.215Z,0.80
2022-10-01T15:39:04.576Z,0.73
2022-10-01T15:41:33.468Z,0.40
2022-10-01T15:44:05.487Z,0.50
2022-10-01T15:46:34.800Z,0.60
2022-10-01T15:49:19.575Z,0.80
2022-10-01T15:52:33.729Z,0.60
2022-10-01T15:55:00.739Z,0.70
2022-10-01T15:57:30.069Z,0.97
2022-10-01T15:59:57.894Z,0.60
2022-10-01T16:02:28.866Z,1.20
2022-10-01T16:05:05.148Z,1.40
2022-10-01T16:07:34.924Z,1.30
2022-10-01T16:10:15.269Z,1.37
2022-10-01T16:12:42.330Z,1.60
2022-10-01T16:15:28.985Z,1.57
2022-10-01T16:18:02.325Z,0.93
2022-10-01T16:20:34.613Z,1.70
2022-10-01T16:23:49.134Z,1.30
2022-10-01T16:26:32.371Z,1.47
2022-10-01T16:29:21.677Z,0.90
2022-10-01T16:31:48.498Z,1.20
2022-10-01T16:34:17.689Z,1.00
2022-10-01T16:36:45.036Z,1.07
2022-10-01T16:39:15.674Z,1.37
2022-10-01T16:41:44.077Z,1.30
2022-10-01T16:44:13.587Z,1.00
2022-10-01T16:46:40.823Z,1.17
2022-10-01T16:49:15.364Z,1.03
2022-10-01T16:51:42.573Z,0.50
2022-10-01T16:54:22.661Z,0.70
2022-10-01T16:56:50.744Z,0.70
2022-10-01T16:59:18.343Z,0.60
2022-10-01T17:01:45.150Z,0.67
2022-10-01T17:04:13.456Z,1.17
2022-10-01T17:06:40.709Z,0.83
2022-10-01T17:09:07.431Z,1.10
2022-10-01T17:11:34.426Z,1.10
2022-10-01T17:14:02.861Z,1.07
2022-10-01T17:16:29.601Z,0.93
2022-10-01T17:18:56.518Z,1.00
2022-10-01T17:21:23.075Z,0.83
2022-10-01T17:23:53.354Z,0.83
2022-10-01T17:26:20.695Z,0.63
2022-10-01T17:28:47.236Z,1.00
2022-10-01T17:31:18.089Z,1.20
2022-10-01T17:33:51.124Z,1.20
2022-10-01T17:36:17.729Z,1.07
2022-10-01T17:38:45.604Z,0.97
2022-10-01T17:41:12.162Z,0.80
2022-10-01T17:43:40.858Z,1.20
2022-10-01T17:46:07.652Z,1.43
2022-10-01T17:48:34.295Z,1.40
2022-10-01T17:51:03.943Z,1.07
2022-10-01T17:53:38.275Z,1.20
2022-10-01T17:56:10.097Z,1.00
2022-10-01T17:58:38.007Z,1.10
2022-10-01T18:01:14.858Z,1.07
2022-10-01T18:03:41.603Z,1.80
2022-10-01T18:06:11.638Z,2.30
2022-10-01T18:08:54.216Z,1.70
2022-10-01T18:11:22.930Z,1.40
2022-10-01T18:13:51.027Z,1.20
2022-10-01T18:16:19.391Z,2.50
2022-10-01T18:21:33.073Z,1.57
2022-10-01T18:24:04.195Z,1.83
2022-10-01T18:26:31.814Z,1.50
2022-10-01T18:28:58.388Z,1.70
2022-10-01T18:31:26.947Z,1.30
2022-10-01T18:33:56.655Z,1.30
2022-10-01T18:36:26.476Z,1.20
2022-10-01T18:39:05.100Z,1.33
2022-10-01T18:41:39.568Z,1.17
2022-10-01T18:44:13.308Z,1.43
2022-10-01T18:46:50.475Z,1.30
2022-10-01T18:49:29.427Z,1.50
2022-10-01T18:52:10.621Z,1.30
2022-10-01T18:55:31.022Z,1.47
2022-10-01T18:58:16.559Z,1.43
2022-10-01T19:01:08.060Z,1.50
2022-10-01T19:04:00.490Z,1.13
2022-10-01T19:06:55.170Z,1.50
2022-10-01T19:10:01.325Z,1.83
2022-10-01T19:12:48.965Z,1.20
2022-10-01T19:15:36.661Z,1.70
2022-10-01T19:18:21.467Z,1.60
2022-10-01T19:21:13.824Z,1.47
2022-10-01T19:23:54.586Z,1.27
2022-10-01T19:26:26.873Z,1.10
2022-10-01T19:29:22.124Z,1.63
2022-10-01T19:31:53.520Z,2.80
2022-10-01T19:34:38.540Z,3.47
2022-10-01T19:37:18.673Z,2.17
2022-10-01T19:39:48.794Z,2.37
2022-10-01T19:42:23.319Z,2.03
2022-10-01T19:44:59.474Z,1.60
2022-10-01T19:47:33.866Z,1.50
2022-10-01T19:50:12.394Z,1.80
2022-10-01T19:52:41.160Z,1.70
2022-10-01T19:55:16.311Z,1.43
2022-10-01T19:57:44.561Z,1.87
2022-10-01T20:00:19.061Z,1.47
2022-10-01T20:03:04.534Z,2.07
2022-10-01T20:05:53.560Z,1.23
2022-10-01T20:08:28.864Z,1.93
2022-10-01T20:11:00.053Z,2.07
2022-10-01T20:13:38.978Z,1.73
2022-10-01T20:16:25.483Z,1.90
2022-10-01T20:19:13.847Z,1.57
2022-10-01T20:21:52.409Z,1.53
2022-10-01T20:24:44.083Z,1.80
2022-10-01T20:27:34.722Z,1.57
2022-10-01T20:30:07.261Z,1.10
2022-10-01T20:33:01.580Z,1.30
2022-10-01T20:35:32.717Z,1.13
2022-10-01T20:38:07.437Z,1.10
2022-10-01T20:41:02.630Z,0.90
2022-10-01T20:43:49.061Z,1.60
2022-10-01T20:46:34.442Z,1.47
2022-10-01T20:49:19.501Z,1.93
2022-10-01T20:52:01.257Z,1.03
2022-10-01T20:54:35.393Z,1.30
2022-10-01T20:57:22.629Z,1.23
2022-10-01T20:59:53.166Z,0.87
2022-10-01T21:02:37.883Z,1.10
2022-10-01T21:05:14.702Z,1.20
2022-10-01T21:08:02.017Z,0.93
2022-10-01T21:10:40.735Z,1.87
2022-10-01T21:13:27.652Z,1.20
2022-10-01T21:16:22.908Z,0.97
2022-10-01T21:19:20.448Z,0.90
2022-10-01T21:22:03.826Z,1.00
2022-10-01T21:24:51.766Z,1.27
2022-10-01T21:27:25.091Z,1.33
2022-10-01T21:30:06.599Z,1.20
2022-10-01T21:33:04.150Z,0.93
2022-10-01T21:35:33.740Z,1.73
2022-10-01T21:38:28.410Z,1.10
2022-10-01T21:41:16.415Z,1.27
2022-10-01T21:43:45.951Z,1.13
2022-10-01T21:46:21.457Z,0.73
2022-10-01T21:48:53.932Z,1.27
2022-10-01T21:51:23.462Z,1.20
2022-10-01T21:54:05.033Z,1.17
2022-10-01T21:56:54.922Z,1.13
2022-10-01T21:59:42.629Z,1.20
2022-10-01T22:02:27.303Z,1.13
2022-10-01T22:05:02.218Z,1.17
2022-10-01T22:07:36.236Z,1.40
2022-10-01T22:10:19.097Z,1.07
2022-10-01T22:12:49.393Z,1.57
2022-10-01T22:15:32.085Z,1.20
2022-10-01T22:18:01.956Z,1.00
2022-10-01T22:20:34.180Z,1.30
2022-10-01T22:23:08.224Z,1.10
2022-10-01T22:25:42.788Z,1.17
2022-10-01T22:28:16.253Z,1.20
2022-10-01T22:30:47.442Z,1.20
2022-10-01T22:33:21.946Z,1.10
2022-10-01T22:36:26.035Z,1.20
2022-10-01T22:39:02.387Z,1.30
2022-10-01T22:41:51.917Z,1.43
2022-10-01T22:44:21.048Z,1.00
2022-10-01T22:47:06.694Z,0.90
2022-10-01T22:49:33.206Z,1.00
2022-10-01T22:52:08.621Z,0.80
2022-10-01T22:54:48.172Z,0.70
2022-10-01T22:57:36.322Z,1.10
2022-10-01T23:00:09.396Z,1.10
2022-10-01T23:02:42.077Z,0.83
2022-10-01T23:05:39.749Z,1.40
2022-10-01T23:08:31.847Z,2.00
2022-10-01T23:11:02.984Z,0.90
2022-10-01T23:14:00.320Z,1.23
2022-10-01T23:16:39.835Z,1.00
2022-10-01T23:19:31.130Z,1.37
2022-10-01T23:22:06.787Z,1.07
2022-10-01T23:24:54.992Z,1.23
2022-10-01T23:27:52.111Z,1.10
2022-10-01T23:30:20.117Z,0.90
2022-10-01T23:33:08.540Z,1.10
2022-10-01T23:36:16.482Z,1.23
2022-10-01T23:39:09.516Z,0.70
2022-10-01T23:41:43.294Z,1.30
2022-10-01T23:44:20.225Z,1.00
2022-10-01T23:46:50.760Z,0.87
2022-10-01T23:49:23.662Z,0.93
2022-10-01T23:52:03.016Z,0.60
2022-10-01T23:54:38.269Z,0.90
2022-10-01T23:57:16.105Z,1.00
2022-10-01T23:59:58.306Z,1.03
